WetterOnline ( https://www.wetteronline.de )

Wetter aktuell Wunsiedel

Aktuelles Wetter: Wunsiedel-Schönbrunn (622m)

6-stündlich | Neueste Meldungen
Ortszeit Temperatur Wetter
Fr, 18.10. 14:00 14.6° C wolkig
Fr, 18.10. 8:00 11.0° C bewölkt
Fr, 18.10. 2:00 10.5° C Sprühregen
Do, 17.10. 20:00 11.1° C wolkig
Do, 17.10. 14:00 12.8° C bedeckt
Do, 17.10. 8:00 7.5° C leichter Regen
Do, 17.10. 2:00 8.5° C bewölkt
Mi, 16.10. 20:00 10.3° C wolkig
Ortszeit Temperatur Wetter
Fr, 18.10. 15:30 15.2° C wolkig
Fr, 18.10. 15:20 15.2° C wolkig
Fr, 18.10. 15:10 15.3° C wolkig
Fr, 18.10. 15:00 15.4° C wolkig
Fr, 18.10. 14:50 15.4° C wolkig
Fr, 18.10. 14:40 15.4° C wolkig
Fr, 18.10. 14:30 15.0° C wolkig
Fr, 18.10. 14:00 14.6° C wolkig
Fr, 18.10. 13:30 14.8° C wolkig
Fr, 18.10. 13:00 13.9° C leicht bewölkt
Fr, 18.10. 12:30 13.4° C wolkig
Ortszeit Relative Feuchte Sichtweite
Fr, 18.10. 14:00 75% 50 km
Fr, 18.10. 8:00 94% 22 km
Fr, 18.10. 2:00 90% 28 km
Do, 17.10. 20:00 84% 50 km
Do, 17.10. 14:00 70% 55 km
Do, 17.10. 8:00 83% 45 km
Do, 17.10. 2:00 78% 65 km
Mi, 16.10. 20:00 78% 40 km
Ortszeit Relative Feuchte Sichtweite
Fr, 18.10. 15:30 67% 50 km
Fr, 18.10. 15:20 67% -
Fr, 18.10. 15:10 68% -
Fr, 18.10. 15:00 70% 50 km
Fr, 18.10. 14:50 70% -
Fr, 18.10. 14:40 69% -
Fr, 18.10. 14:30 74% 65 km
Fr, 18.10. 14:00 75% 50 km
Fr, 18.10. 13:30 78% 35 km
Fr, 18.10. 13:00 80% 40 km
Fr, 18.10. 12:30 81% 65 km
Ortszeit Niederschlagsmenge Niederschlagsart
Fr, 18.10. 14:00 0.8 l/m2 in 6 Std. Regen
Fr, 18.10. 8:00 0.6 l/m2 in 12 Std. Regen
Fr, 18.10. 2:00 0.5 l/m2 in 6 Std. Regen
Do, 17.10. 20:00 0.1 l/m2 in 12 Std. -
Do, 17.10. 14:00 0.1 l/m2 in 6 Std. Regen
Do, 17.10. 8:00 0.1 l/m2 in 12 Std. Regen
Do, 17.10. 2:00 0.1 l/m2 in 6 Std. Sprühregen
Mi, 16.10. 20:00 0.1 l/m2 in 12 Std. Regen
Ortszeit Niederschlagsmenge Niederschlagsart
Fr, 18.10. 15:30 0.0 l/m2 in 1 Std. -
Fr, 18.10. 15:20 keine Meldung -
Fr, 18.10. 15:10 keine Meldung -
Fr, 18.10. 15:00 0.0 l/m2 in 1 Std. -
Fr, 18.10. 14:50 keine Meldung -
Fr, 18.10. 14:40 keine Meldung -
Fr, 18.10. 14:30 0.0 l/m2 in 1 Std. -
Fr, 18.10. 14:00 0.0 l/m2 in 1 Std. Regen
Fr, 18.10. 13:30 0.0 l/m2 in 1 Std. -
Fr, 18.10. 13:00 0.0 l/m2 in 1 Std. -
Fr, 18.10. 12:30 0.0 l/m2 in 1 Std. -
Ortszeit Stärke Spitze Richtung
km/h Bft. km/h Grad Sektor
Fr, 18.10. 14:00 24 4 35 180° S
Fr, 18.10. 8:00 7 2 22 220° SW
Fr, 18.10. 2:00 14 3 25 210° SW
Do, 17.10. 20:00 0 0 22 - -
Do, 17.10. 14:00 15 3 26 190° S
Do, 17.10. 8:00 15 3 28 230° SW
Do, 17.10. 2:00 7 2 22 280° W
Mi, 16.10. 20:00 13 3 41 210° SW
Ortszeit Stärke Spitze Richtung
km/h Bft. km/h Grad Sektor
Fr, 18.10. 15:30 20 4 30 180° S
Fr, 18.10. 15:20 20 4 - 180° S
Fr, 18.10. 15:10 20 4 - 180° S
Fr, 18.10. 15:00 17 3 35 180° S
Fr, 18.10. 14:50 17 3 - 180° S
Fr, 18.10. 14:40 22 4 - 180° S
Fr, 18.10. 14:30 18 3 29 180° S
Fr, 18.10. 14:00 24 4 35 180° S
Fr, 18.10. 13:30 17 3 31 180° S
Fr, 18.10. 13:00 19 3 30 190° S
Fr, 18.10. 12:30 13 3 22 210° SW
Ortszeit Untergrenze Bedeckung Gattung
total tief tief mittel hoch
Fr, 18.10. 14:00 840 m 8/8 1/8 - - -
Fr, 18.10. 8:00 240 m 8/8 7/8 - - -
Fr, 18.10. 2:00 570 m 6/8 4/8 - - -
Do, 17.10. 20:00 2400 m 8/8 1/8 - - -
Do, 17.10. 14:00 3900 m 8/8 8/8 - - -
Do, 17.10. 8:00 2700 m 7/8 8/8 - - -
Do, 17.10. 2:00 5100 m 8/8 7/8 - - -
Mi, 16.10. 20:00 1410 m 7/8 3/8 - - -
Ortszeit Bedeckungsgrad in Achtel und Wolkenuntergrenze
Fr, 18.10. 15:30 1(900m) 7(4500m)
Fr, 18.10. 15:20 1(900m) 7(4500m)
Fr, 18.10. 15:10 2(900m) 8(6000m) 8(7500m)
Fr, 18.10. 15:00 1(900m) 8(6000m) 8(7800m)
Fr, 18.10. 14:50 1(900m) 8(6000m) 8(7800m)
Fr, 18.10. 14:40 1(2400m) 8(6000m) 8(8100m)
Fr, 18.10. 14:30 2(750m) 6(4200m) 8(5400m)
Fr, 18.10. 14:00 1(840m) 8(5400m) 8(5400m)
Fr, 18.10. 13:30 3(480m) 7(5700m) 7(6600m)
Fr, 18.10. 13:00 1(390m) 7(6300m) 7(6900m)
Fr, 18.10. 12:30 4(270m) 7(6600m)
Ortszeit Luftdruck NN (hPa) Tendenz (hPa in 3 Std.)
Fr, 18.10. 14:00 1011 - 1,9
Fr, 18.10. 8:00 1014 + 0,1
Fr, 18.10. 2:00 1015 - 0,4
Do, 17.10. 20:00 1015 + 0,1
Do, 17.10. 14:00 1015 - 0,6
Do, 17.10. 8:00 1016 + 0,3
Do, 17.10. 2:00 1016 0,0
Mi, 16.10. 20:00 1015 0,0
Ortszeit Luftdruck NN (hPa) Tendenz (hPa in 3 Std.)
Fr, 18.10. 15:30 1010 - 1,9
Fr, 18.10. 15:20 1010 keine Meldung
Fr, 18.10. 15:10 1010 keine Meldung
Fr, 18.10. 15:00 1010 - 2,2
Fr, 18.10. 14:50 1010 keine Meldung
Fr, 18.10. 14:40 1010 keine Meldung
Fr, 18.10. 14:30 1011 - 2,1
Fr, 18.10. 14:00 1011 - 1,9
Fr, 18.10. 13:30 1012 - 1,6
Fr, 18.10. 13:00 1012 - 1,1
Fr, 18.10. 12:30 1013 - 0,8
Ortszeit Schneehöhe (cm)
Fr, 18.10. 14:00 0
Fr, 18.10. 8:00 0
Fr, 18.10. 2:00 0
Do, 17.10. 20:00 0
Do, 17.10. 14:00 0
Do, 17.10. 8:00 0
Do, 17.10. 2:00 0
Mi, 16.10. 20:00 0
Ortszeit Schneehöhe (cm)
Fr, 18.10. 15:30 0
Fr, 18.10. 15:20 0
Fr, 18.10. 15:10 0
Fr, 18.10. 15:00 0
Fr, 18.10. 14:50 0
Fr, 18.10. 14:40 0
Fr, 18.10. 14:30 0
Fr, 18.10. 14:00 0
Fr, 18.10. 13:30 0
Fr, 18.10. 13:00 0
Fr, 18.10. 12:30 0
Link zu dieser Seite / Seite empfehlen

Das Wetter in ...